sensor_id;sensor_type;location;lat;lon;timestamp;pressure;altitude;pressure_sealevel;temperature;humidity
68793;BME280;55778;54.346;10.210;2023-03-25T00:00:56;99382.91;;;8.25;100.00
68793;BME280;55778;54.346;10.210;2023-03-25T00:03:23;99373.78;;;8.26;100.00
68793;BME280;55778;54.346;10.210;2023-03-25T00:05:50;99379.53;;;8.23;100.00
68793;BME280;55778;54.346;10.210;2023-03-25T00:08:16;99370.84;;;8.19;100.00
68793;BME280;55778;54.346;10.210;2023-03-25T00:10:41;99367.59;;;8.16;100.00
68793;BME280;55778;54.346;10.210;2023-03-25T00:13:07;99371.66;;;8.12;100.00
68793;BME280;55778;54.346;10.210;2023-03-25T00:15:33;99362.50;;;8.13;100.00
68793;BME280;55778;54.346;10.210;2023-03-25T00:17:59;99362.66;;;8.03;100.00
68793;BME280;55778;54.346;10.210;2023-03-25T00:20:26;99363.16;;;8.07;100.00
68793;BME280;55778;54.346;10.210;2023-03-25T00:22:52;99363.16;;;8.07;100.00
68793;BME280;55778;54.346;10.210;2023-03-25T00:25:19;99356.72;;;8.08;100.00
68793;BME280;55778;54.346;10.210;2023-03-25T00:27:46;99357.38;;;8.10;100.00
68793;BME280;55778;54.346;10.210;2023-03-25T00:30:17;99355.06;;;8.15;100.00
68793;BME280;55778;54.346;10.210;2023-03-25T00:32:44;99361.53;;;8.22;100.00
68793;BME280;55778;54.346;10.210;2023-03-25T00:35:17;99354.63;;;8.28;100.00
68793;BME280;55778;54.346;10.210;2023-03-25T00:37:50;99346.97;;;8.31;100.00
68793;BME280;55778;54.346;10.210;2023-03-25T00:40:30;99339.69;;;8.32;100.00
68793;BME280;55778;54.346;10.210;2023-03-25T00:43:00;99349.72;;;8.39;100.00
68793;BME280;55778;54.346;10.210;2023-03-25T00:45:26;99342.44;;;8.40;100.00
68793;BME280;55778;54.346;10.210;2023-03-25T00:47:51;99332.25;;;8.42;100.00
68793;BME280;55778;54.346;10.210;2023-03-25T00:50:17;99343.81;;;8.44;100.00
68793;BME280;55778;54.346;10.210;2023-03-25T00:52:42;99337.50;;;8.43;100.00
68793;BME280;55778;54.346;10.210;2023-03-25T00:55:08;99333.59;;;8.46;100.00
68793;BME280;55778;54.346;10.210;2023-03-25T00:57:33;99339.19;;;8.44;100.00
68793;BME280;55778;54.346;10.210;2023-03-25T01:00:00;99328.88;;;8.40;100.00
68793;BME280;55778;54.346;10.210;2023-03-25T01:02:25;99340.06;;;8.45;100.00
68793;BME280;55778;54.346;10.210;2023-03-25T01:04:51;99329.88;;;8.39;100.00
68793;BME280;55778;54.346;10.210;2023-03-25T01:07:17;99326.50;;;8.37;100.00
68793;BME280;55778;54.346;10.210;2023-03-25T01:09:44;99340.56;;;8.32;100.00
68793;BME280;55778;54.346;10.210;2023-03-25T01:12:12;99328.97;;;8.22;100.00
68793;BME280;55778;54.346;10.210;2023-03-25T01:14:38;99326.13;;;8.32;100.00
68793;BME280;55778;54.346;10.210;2023-03-25T01:17:05;99320.69;;;8.32;100.00
68793;BME280;55778;54.346;10.210;2023-03-25T01:19:30;99313.38;;;8.24;100.00
68793;BME280;55778;54.346;10.210;2023-03-25T01:21:56;99332.75;;;8.29;100.00
68793;BME280;55778;54.346;10.210;2023-03-25T01:24:21;99319.84;;;8.31;100.00
68793;BME280;55778;54.346;10.210;2023-03-25T01:26:47;99322.56;;;8.31;100.00
68793;BME280;55778;54.346;10.210;2023-03-25T01:29:20;99333.75;;;8.28;100.00
68793;BME280;55778;54.346;10.210;2023-03-25T01:31:46;99316.13;;;8.32;100.00
68793;BME280;55778;54.346;10.210;2023-03-25T01:34:13;99318.50;;;8.35;100.00
68793;BME280;55778;54.346;10.210;2023-03-25T01:36:38;99311.19;;;8.36;100.00
68793;BME280;55778;54.346;10.210;2023-03-25T01:39:06;99313.75;;;8.37;100.00
68793;BME280;55778;54.346;10.210;2023-03-25T01:41:33;99314.94;;;8.35;100.00
68793;BME280;55778;54.346;10.210;2023-03-25T01:46:33;99305.44;;;8.39;100.00
68793;BME280;55778;54.346;10.210;2023-03-25T01:49:00;99307.00;;;8.41;100.00
68793;BME280;55778;54.346;10.210;2023-03-25T01:51:30;99300.88;;;8.39;100.00
68793;BME280;55778;54.346;10.210;2023-03-25T01:53:56;99320.91;;;8.38;100.00
68793;BME280;55778;54.346;10.210;2023-03-25T01:56:26;99308.16;;;8.39;100.00
68793;BME280;55778;54.346;10.210;2023-03-25T01:58:55;99304.78;;;8.37;100.00
68793;BME280;55778;54.346;10.210;2023-03-25T02:01:21;99300.88;;;8.39;100.00
68793;BME280;55778;54.346;10.210;2023-03-25T02:03:49;99302.72;;;8.39;100.00
68793;BME280;55778;54.346;10.210;2023-03-25T02:06:27;99296.47;;;8.38;100.00
68793;BME280;55778;54.346;10.210;2023-03-25T02:08:57;99290.34;;;8.36;100.00
68793;BME280;55778;54.346;10.210;2023-03-25T02:11:23;99299.69;;;8.34;100.00
68793;BME280;55778;54.346;10.210;2023-03-25T02:13:55;99304.94;;;8.35;100.00
68793;BME280;55778;54.346;10.210;2023-03-25T02:16:31;99294.75;;;8.29;100.00
68793;BME280;55778;54.346;10.210;2023-03-25T02:19:11;99299.31;;;8.29;100.00
68793;BME280;55778;54.346;10.210;2023-03-25T02:30:13;99290.63;;;8.17;100.00
68793;BME280;55778;54.346;10.210;2023-03-25T02:33:04;99292.81;;;8.13;100.00
68793;BME280;55778;54.346;10.210;2023-03-25T02:36:01;99281.97;;;8.13;100.00
68793;BME280;55778;54.346;10.210;2023-03-25T02:38:38;99292.13;;;8.11;100.00
68793;BME280;55778;54.346;10.210;2023-03-25T02:43:50;99278.06;;;8.16;100.00
68793;BME280;55778;54.346;10.210;2023-03-25T02:46:18;99278.75;;;8.18;100.00
68793;BME280;55778;54.346;10.210;2023-03-25T02:49:05;99285.38;;;8.15;100.00
68793;BME280;55778;54.346;10.210;2023-03-25T02:51:40;99279.06;;;8.15;100.00
68793;BME280;55778;54.346;10.210;2023-03-25T02:54:10;99275.16;;;8.17;100.00
68793;BME280;55778;54.346;10.210;2023-03-25T02:56:39;99274.31;;;8.09;100.00
68793;BME280;55778;54.346;10.210;2023-03-25T02:59:07;99274.31;;;8.01;100.00
68793;BME280;55778;54.346;10.210;2023-03-25T03:01:34;99272.44;;;8.01;100.00
68793;BME280;55778;54.346;10.210;2023-03-25T03:04:00;99275.63;;;7.97;100.00
68793;BME280;55778;54.346;10.210;2023-03-25T03:06:26;99276.66;;;7.96;100.00
68793;BME280;55778;54.346;10.210;2023-03-25T03:11:27;99262.25;;;7.95;100.00
68793;BME280;55778;54.346;10.210;2023-03-25T03:17:07;99273.09;;;7.95;100.00
68793;BME280;55778;54.346;10.210;2023-03-25T03:24:53;99275.31;;;7.92;100.00
68793;BME280;55778;54.346;10.210;2023-03-25T03:27:31;99267.66;;;7.95;100.00
68793;BME280;55778;54.346;10.210;2023-03-25T03:30:08;99281.22;;;7.95;100.00
68793;BME280;55778;54.346;10.210;2023-03-25T03:35:46;99267.66;;;7.95;100.00
68793;BME280;55778;54.346;10.210;2023-03-25T03:38:15;99275.81;;;7.95;100.00
68793;BME280;55778;54.346;10.210;2023-03-25T03:40:47;99274.81;;;7.96;100.00
68793;BME280;55778;54.346;10.210;2023-03-25T03:43:36;99283.94;;;7.95;100.00
68793;BME280;55778;54.346;10.210;2023-03-25T03:46:07;99280.72;;;7.92;100.00
68793;BME280;55778;54.346;10.210;2023-03-25T03:48:39;99275.16;;;7.93;100.00
68793;BME280;55778;54.346;10.210;2023-03-25T03:51:14;99280.72;;;7.92;100.00
68793;BME280;55778;54.346;10.210;2023-03-25T03:56:24;99292.03;;;7.79;100.00
68793;BME280;55778;54.346;10.210;2023-03-25T03:58:53;99286.78;;;7.78;100.00
68793;BME280;55778;54.346;10.210;2023-03-25T04:01:33;99273.88;;;7.72;100.00
68793;BME280;55778;54.346;10.210;2023-03-25T04:04:03;99279.81;;;7.75;100.00
68793;BME280;55778;54.346;10.210;2023-03-25T04:06:57;99279.28;;;7.72;100.00
68793;BME280;55778;54.346;10.210;2023-03-25T04:09:54;99276.25;;;7.67;100.00
68793;BME280;55778;54.346;10.210;2023-03-25T04:12:33;99269.97;;;7.66;100.00
68793;BME280;55778;54.346;10.210;2023-03-25T04:15:00;99268.94;;;7.59;100.00
68793;BME280;55778;54.346;10.210;2023-03-25T04:17:27;99268.72;;;7.53;100.00
68793;BME280;55778;54.346;10.210;2023-03-25T04:19:57;99272.78;;;7.57;100.00
68793;BME280;55778;54.346;10.210;2023-03-25T04:22:23;99271.09;;;7.56;100.00
68793;BME280;55778;54.346;10.210;2023-03-25T04:24:49;99268.75;;;7.61;100.00
68793;BME280;55778;54.346;10.210;2023-03-25T04:27:17;99268.22;;;7.57;100.00
68793;BME280;55778;54.346;10.210;2023-03-25T04:29:43;99276.56;;;7.64;100.00
68793;BME280;55778;54.346;10.210;2023-03-25T04:32:10;99283.69;;;7.65;100.00
68793;BME280;55778;54.346;10.210;2023-03-25T04:34:37;99282.00;;;7.64;100.00
68793;BME280;55778;54.346;10.210;2023-03-25T04:37:02;99285.69;;;7.63;100.00
68793;BME280;55778;54.346;10.210;2023-03-25T04:39:28;99281.66;;;7.67;100.00
68793;BME280;55778;54.346;10.210;2023-03-25T04:41:57;99278.78;;;7.68;100.00
68793;BME280;55778;54.346;10.210;2023-03-25T04:44:30;99282.66;;;7.66;100.00
68793;BME280;55778;54.346;10.210;2023-03-25T04:47:04;99286.56;;;7.63;100.00
68793;BME280;55778;54.346;10.210;2023-03-25T04:49:30;99266.16;;;7.51;100.00
68793;BME280;55778;54.346;10.210;2023-03-25T04:51:56;99275.66;;;7.47;100.00
68793;BME280;55778;54.346;10.210;2023-03-25T04:54:22;99281.72;;;7.41;100.00
68793;BME280;55778;54.346;10.210;2023-03-25T04:56:48;99274.38;;;7.34;100.00
68793;BME280;55778;54.346;10.210;2023-03-25T04:59:18;99278.94;;;7.25;100.00
68793;BME280;55778;54.346;10.210;2023-03-25T05:01:46;99270.25;;;7.22;100.00
68793;BME280;55778;54.346;10.210;2023-03-25T05:04:13;99288.19;;;7.23;100.00
68793;BME280;55778;54.346;10.210;2023-03-25T05:06:43;99288.69;;;7.18;100.00
68793;BME280;55778;54.346;10.210;2023-03-25T05:09:14;99290.56;;;7.18;100.00
68793;BME280;55778;54.346;10.210;2023-03-25T05:11:44;99282.75;;;7.15;100.00
68793;BME280;55778;54.346;10.210;2023-03-25T05:14:11;99273.94;;;7.13;100.00
68793;BME280;55778;54.346;10.210;2023-03-25T05:16:37;99284.44;;;7.16;100.00
68793;BME280;55778;54.346;10.210;2023-03-25T05:19:03;99283.41;;;7.09;100.00
68793;BME280;55778;54.346;10.210;2023-03-25T05:21:35;99272.19;;;7.04;100.00
68793;BME280;55778;54.346;10.210;2023-03-25T05:24:02;99275.03;;;7.02;100.00
68793;BME280;55778;54.346;10.210;2023-03-25T05:26:28;99271.31;;;7.03;100.00
68793;BME280;55778;54.346;10.210;2023-03-25T05:29:02;99279.28;;;7.05;100.00
68793;BME280;55778;54.346;10.210;2023-03-25T05:31:28;99292.34;;;7.09;100.00
68793;BME280;55778;54.346;10.210;2023-03-25T05:33:54;99281.19;;;7.12;100.00
68793;BME280;55778;54.346;10.210;2023-03-25T05:36:20;99283.06;;;7.12;100.00
68793;BME280;55778;54.346;10.210;2023-03-25T05:38:45;99290.13;;;7.05;100.00
68793;BME280;55778;54.346;10.210;2023-03-25T05:41:13;99287.00;;;7.17;100.00
68793;BME280;55778;54.346;10.210;2023-03-25T05:43:44;99282.94;;;7.21;100.00
68793;BME280;55778;54.346;10.210;2023-03-25T05:46:12;99292.09;;;7.20;100.00
68793;BME280;55778;54.346;10.210;2023-03-25T05:48:38;99294.97;;;7.19;100.00
68793;BME280;55778;54.346;10.210;2023-03-25T05:51:10;99284.59;;;7.14;100.00
68793;BME280;55778;54.346;10.210;2023-03-25T05:53:41;99298.31;;;7.13;100.00
68793;BME280;55778;54.346;10.210;2023-03-25T05:56:08;99284.66;;;7.22;100.00
68793;BME280;55778;54.346;10.210;2023-03-25T05:58:34;99287.72;;;7.27;100.00
68793;BME280;55778;54.346;10.210;2023-03-25T06:01:00;99300.94;;;7.30;100.00
68793;BME280;55778;54.346;10.210;2023-03-25T06:03:27;99293.19;;;7.35;100.00
68793;BME280;55778;54.346;10.210;2023-03-25T06:05:52;99287.47;;;7.38;100.00
68793;BME280;55778;54.346;10.210;2023-03-25T06:08:18;99293.34;;;7.34;100.00
68793;BME280;55778;54.346;10.210;2023-03-25T06:10:54;99296.22;;;7.32;100.00
68793;BME280;55778;54.346;10.210;2023-03-25T06:13:26;99299.78;;;7.33;100.00
68793;BME280;55778;54.346;10.210;2023-03-25T06:15:52;99290.81;;;7.32;100.00
68793;BME280;55778;54.346;10.210;2023-03-25T06:18:22;99304.13;;;7.26;100.00
68793;BME280;55778;54.346;10.210;2023-03-25T06:20:51;99293.63;;;7.23;100.00
68793;BME280;55778;54.346;10.210;2023-03-25T06:23:21;99300.28;;;7.28;100.00
68793;BME280;55778;54.346;10.210;2023-03-25T06:25:48;99293.28;;;7.26;100.00
68793;BME280;55778;54.346;10.210;2023-03-25T06:28:14;99302.22;;;7.18;100.00
68793;BME280;55778;54.346;10.210;2023-03-25T06:30:46;99304.28;;;7.16;100.00
68793;BME280;55778;54.346;10.210;2023-03-25T06:33:13;99302.03;;;7.12;100.00
68793;BME280;55778;54.346;10.210;2023-03-25T06:35:39;99307.44;;;7.12;100.00
68793;BME280;55778;54.346;10.210;2023-03-25T06:38:08;99311.31;;;7.09;100.00
68793;BME280;55778;54.346;10.210;2023-03-25T06:40:37;99314.88;;;7.10;100.00
68793;BME280;55778;54.346;10.210;2023-03-25T06:43:04;99313.34;;;7.07;100.00
68793;BME280;55778;54.346;10.210;2023-03-25T06:45:31;99315.03;;;7.08;100.00
68793;BME280;55778;54.346;10.210;2023-03-25T06:48:00;99319.28;;;7.11;100.00
68793;BME280;55778;54.346;10.210;2023-03-25T06:50:25;99315.59;;;7.12;100.00
68793;BME280;55778;54.346;10.210;2023-03-25T06:52:51;99318.28;;;7.12;100.00
68793;BME280;55778;54.346;10.210;2023-03-25T06:55:16;99320.69;;;7.15;100.00
68793;BME280;55778;54.346;10.210;2023-03-25T06:57:42;99319.28;;;7.11;100.00
68793;BME280;55778;54.346;10.210;2023-03-25T07:00:08;99317.81;;;7.16;100.00
68793;BME280;55778;54.346;10.210;2023-03-25T07:02:37;99313.59;;;7.22;100.00
68793;BME280;55778;54.346;10.210;2023-03-25T07:05:04;99318.16;;;7.21;100.00
68793;BME280;55778;54.346;10.210;2023-03-25T07:07:30;99326.09;;;7.15;100.00
68793;BME280;55778;54.346;10.210;2023-03-25T07:09:55;99323.56;;;7.21;100.00
68793;BME280;55778;54.346;10.210;2023-03-25T07:12:21;99322.59;;;7.22;100.00
68793;BME280;55778;54.346;10.210;2023-03-25T07:14:54;99321.41;;;7.25;100.00
68793;BME280;55778;54.346;10.210;2023-03-25T07:17:21;99319.25;;;7.28;100.00
68793;BME280;55778;54.346;10.210;2023-03-25T07:19:47;99327.94;;;7.40;100.00
68793;BME280;55778;54.346;10.210;2023-03-25T07:22:16;99313.06;;;7.44;100.00
68793;BME280;55778;54.346;10.210;2023-03-25T07:24:42;99321.88;;;7.46;100.00
68793;BME280;55778;54.346;10.210;2023-03-25T07:27:12;99324.38;;;7.39;100.00
68793;BME280;55778;54.346;10.210;2023-03-25T07:29:38;99323.88;;;7.44;100.00
68793;BME280;55778;54.346;10.210;2023-03-25T07:32:03;99326.91;;;7.41;100.00
68793;BME280;55778;54.346;10.210;2023-03-25T07:34:29;99317.09;;;7.40;100.00
68793;BME280;55778;54.346;10.210;2023-03-25T07:36:57;99324.75;;;7.44;100.00
68793;BME280;55778;54.346;10.210;2023-03-25T07:39:23;99330.53;;;7.49;100.00
68793;BME280;55778;54.346;10.210;2023-03-25T07:41:52;99334.41;;;7.47;100.00
68793;BME280;55778;54.346;10.210;2023-03-25T07:44:18;99324.59;;;7.46;100.00
68793;BME280;55778;54.346;10.210;2023-03-25T07:46:48;99342.75;;;7.53;100.00
68793;BME280;55778;54.346;10.210;2023-03-25T07:49:15;99340.22;;;7.52;100.00
68793;BME280;55778;54.346;10.210;2023-03-25T07:51:44;99333.22;;;7.49;100.00
68793;BME280;55778;54.346;10.210;2023-03-25T07:54:10;99344.88;;;7.42;100.00
68793;BME280;55778;54.346;10.210;2023-03-25T07:56:41;99337.28;;;7.45;100.00
68793;BME280;55778;54.346;10.210;2023-03-25T07:59:07;99333.94;;;7.51;100.00
68793;BME280;55778;54.346;10.210;2023-03-25T08:01:33;99334.41;;;7.47;100.00
68793;BME280;55778;54.346;10.210;2023-03-25T08:03:58;99344.81;;;7.59;100.00
68793;BME280;55778;54.346;10.210;2023-03-25T08:06:24;99339.44;;;7.67;100.00
68793;BME280;55778;54.346;10.210;2023-03-25T08:08:50;99334.94;;;7.84;100.00
68793;BME280;55778;54.346;10.210;2023-03-25T08:11:16;99343.28;;;7.90;100.00
68793;BME280;55778;54.346;10.210;2023-03-25T08:13:42;99342.78;;;8.03;100.00
68793;BME280;55778;54.346;10.210;2023-03-25T08:16:12;99347.94;;;8.14;100.00
68793;BME280;55778;54.346;10.210;2023-03-25T08:18:38;99338.38;;;8.52;100.00
68793;BME280;55778;54.346;10.210;2023-03-25T08:21:04;99336.69;;;8.51;100.00
68793;BME280;55778;54.346;10.210;2023-03-25T08:23:30;99335.66;;;8.52;100.00
68793;BME280;55778;54.346;10.210;2023-03-25T08:25:56;99341.09;;;8.60;100.00
68793;BME280;55778;54.346;10.210;2023-03-25T08:28:21;99334.84;;;8.67;100.00
68793;BME280;55778;54.346;10.210;2023-03-25T08:30:51;99336.69;;;8.83;100.00
68793;BME280;55778;54.346;10.210;2023-03-25T08:33:21;99340.97;;;8.85;100.00
68793;BME280;55778;54.346;10.210;2023-03-25T08:35:47;99331.59;;;8.56;100.00
68793;BME280;55778;54.346;10.210;2023-03-25T08:38:15;99335.47;;;8.53;100.00
68793;BME280;55778;54.346;10.210;2023-03-25T08:40:42;99334.31;;;8.64;100.00
68793;BME280;55778;54.346;10.210;2023-03-25T08:43:10;99331.97;;;8.77;100.00
68793;BME280;55778;54.346;10.210;2023-03-25T08:45:35;99334.50;;;8.78;100.00
68793;BME280;55778;54.346;10.210;2023-03-25T08:48:01;99345.03;;;8.97;100.00
68793;BME280;55778;54.346;10.210;2023-03-25T08:50:28;99338.91;;;8.95;100.00
68793;BME280;55778;54.346;10.210;2023-03-25T08:52:59;99338.41;;;9.00;100.00
68793;BME280;55778;54.346;10.210;2023-03-25T08:55:25;99336.56;;;9.00;100.00
68793;BME280;55778;54.346;10.210;2023-03-25T08:57:50;99331.94;;;9.09;100.00
68793;BME280;55778;54.346;10.210;2023-03-25T09:00:16;99328.72;;;9.05;100.00
68793;BME280;55778;54.346;10.210;2023-03-25T09:02:43;99327.88;;;8.97;100.00
68793;BME280;55778;54.346;10.210;2023-03-25T09:05:10;99329.59;;;8.74;100.00
68793;BME280;55778;54.346;10.210;2023-03-25T09:07:37;99334.50;;;8.70;100.00
68793;BME280;55778;54.346;10.210;2023-03-25T09:10:04;99345.38;;;8.70;100.00
68793;BME280;55778;54.346;10.210;2023-03-25T09:12:30;99346.56;;;8.68;100.00
68793;BME280;55778;54.346;10.210;2023-03-25T09:14:58;99348.75;;;8.64;100.00
68793;BME280;55778;54.346;10.210;2023-03-25T09:17:24;99335.50;;;8.61;100.00
68793;BME280;55778;54.346;10.210;2023-03-25T09:19:49;99348.25;;;8.69;100.00
68793;BME280;55778;54.346;10.210;2023-03-25T09:22:15;99350.47;;;8.73;100.00
68793;BME280;55778;54.346;10.210;2023-03-25T09:24:41;99341.97;;;8.76;100.00
68793;BME280;55778;54.346;10.210;2023-03-25T09:27:06;99354.19;;;8.72;100.00
68793;BME280;55778;54.346;10.210;2023-03-25T09:29:32;99343.50;;;8.71;100.00
68793;BME280;55778;54.346;10.210;2023-03-25T09:31:58;99344.84;;;8.75;100.00
68793;BME280;55778;54.346;10.210;2023-03-25T09:34:25;99342.97;;;8.83;100.00
68793;BME280;55778;54.346;10.210;2023-03-25T09:36:52;99350.09;;;8.84;100.00
68793;BME280;55778;54.346;10.210;2023-03-25T09:39:18;99346.91;;;8.81;100.00
68793;BME280;55778;54.346;10.210;2023-03-25T09:44:55;99337.41;;;8.93;100.00
68793;BME280;55778;54.346;10.210;2023-03-25T09:47:23;99345.69;;;9.31;100.00
68793;BME280;55778;54.346;10.210;2023-03-25T09:49:53;99331.16;;;9.63;99.83
68793;BME280;55778;54.346;10.210;2023-03-25T09:52:32;99338.13;;;9.65;97.29
68793;BME280;55778;54.346;10.210;2023-03-25T09:55:06;99332.81;;;9.72;97.18
68793;BME280;55778;54.346;10.210;2023-03-25T09:57:43;99330.81;;;10.13;96.81
68793;BME280;55778;54.346;10.210;2023-03-25T10:00:16;99328.28;;;10.03;95.63
68793;BME280;55778;54.346;10.210;2023-03-25T10:02:50;99338.00;;;9.51;98.29
68793;BME280;55778;54.346;10.210;2023-03-25T10:11:06;99345.38;;;8.94;100.00
68793;BME280;55778;54.346;10.210;2023-03-25T10:16:25;99343.81;;;8.44;100.00
68793;BME280;55778;54.346;10.210;2023-03-25T10:21:57;99345.38;;;8.12;100.00
68793;BME280;55778;54.346;10.210;2023-03-25T10:24:30;99356.84;;;7.98;100.00
68793;BME280;55778;54.346;10.210;2023-03-25T10:27:18;99359.25;;;7.68;100.00
68793;BME280;55778;54.346;10.210;2023-03-25T10:30:13;99346.84;;;7.57;100.00
68793;BME280;55778;54.346;10.210;2023-03-25T10:32:52;99343.75;;;7.52;100.00
68793;BME280;55778;54.346;10.210;2023-03-25T10:35:22;99338.06;;;7.63;100.00
68793;BME280;55778;54.346;10.210;2023-03-25T10:37:51;99344.81;;;7.59;100.00
68793;BME280;55778;54.346;10.210;2023-03-25T10:40:24;99347.38;;;7.61;100.00
68793;BME280;55778;54.346;10.210;2023-03-25T10:45:39;99350.66;;;7.47;100.00
68793;BME280;55778;54.346;10.210;2023-03-25T10:48:16;99352.16;;;7.41;100.00
68793;BME280;55778;54.346;10.210;2023-03-25T10:50:43;99356.72;;;7.41;100.00
68793;BME280;55778;54.346;10.210;2023-03-25T10:53:23;99355.13;;;7.56;100.00
68793;BME280;55778;54.346;10.210;2023-03-25T10:55:55;99354.72;;;7.76;100.00
68793;BME280;55778;54.346;10.210;2023-03-25T10:58:21;99349.38;;;7.92;100.00
68793;BME280;55778;54.346;10.210;2023-03-25T11:00:48;99361.13;;;8.01;100.00
68793;BME280;55778;54.346;10.210;2023-03-25T11:03:19;99376.31;;;7.94;100.00
68793;BME280;55778;54.346;10.210;2023-03-25T11:05:47;99368.56;;;7.99;100.00
68793;BME280;55778;54.346;10.210;2023-03-25T11:08:13;99380.59;;;7.96;100.00
68793;BME280;55778;54.346;10.210;2023-03-25T11:10:46;99372.50;;;7.71;100.00
68793;BME280;55778;54.346;10.210;2023-03-25T11:13:12;99395.69;;;7.65;100.00
68793;BME280;55778;54.346;10.210;2023-03-25T11:15:40;99377.84;;;7.55;100.00
68793;BME280;55778;54.346;10.210;2023-03-25T11:18:35;99380.91;;;7.34;100.00
68793;BME280;55778;54.346;10.210;2023-03-25T11:21:05;99379.47;;;7.48;100.00
68793;BME280;55778;54.346;10.210;2023-03-25T11:23:36;99376.88;;;7.38;100.00
68793;BME280;55778;54.346;10.210;2023-03-25T11:26:13;99383.13;;;7.39;100.00
68793;BME280;55778;54.346;10.210;2023-03-25T11:28:48;99375.97;;;7.30;100.00
68793;BME280;55778;54.346;10.210;2023-03-25T11:31:20;99366.25;;;7.19;100.00
68793;BME280;55778;54.346;10.210;2023-03-25T11:39:32;99365.34;;;8.03;100.00
68793;BME280;55778;54.346;10.210;2023-03-25T11:42:07;99370.31;;;8.82;100.00
68793;BME280;55778;54.346;10.210;2023-03-25T11:44:35;99361.91;;;9.71;100.00
68793;BME280;55778;54.346;10.210;2023-03-25T11:47:03;99347.97;;;10.52;100.00
68793;BME280;55778;54.346;10.210;2023-03-25T11:49:33;99348.41;;;10.63;98.90
68793;BME280;55778;54.346;10.210;2023-03-25T11:52:04;99351.13;;;10.63;100.00
68793;BME280;55778;54.346;10.210;2023-03-25T11:54:33;99351.75;;;10.43;99.57
68793;BME280;55778;54.346;10.210;2023-03-25T11:57:02;99363.47;;;10.21;98.75
68793;BME280;55778;54.346;10.210;2023-03-25T11:59:36;99357.09;;;9.89;100.00
68793;BME280;55778;54.346;10.210;2023-03-25T12:02:22;99346.94;;;9.75;100.00
68793;BME280;55778;54.346;10.210;2023-03-25T12:05:02;99366.19;;;9.50;100.00
68793;BME280;55778;54.346;10.210;2023-03-25T12:07:28;99359.94;;;9.33;100.00
68793;BME280;55778;54.346;10.210;2023-03-25T12:09:57;99361.00;;;9.00;100.00
68793;BME280;55778;54.346;10.210;2023-03-25T12:15:33;99365.22;;;8.71;100.00
68793;BME280;55778;54.346;10.210;2023-03-25T12:21:02;99360.22;;;8.34;100.00
68793;BME280;55778;54.346;10.210;2023-03-25T12:32:06;99368.81;;;8.22;100.00
68793;BME280;55778;54.346;10.210;2023-03-25T12:37:42;99364.72;;;8.09;100.00
68793;BME280;55778;54.346;10.210;2023-03-25T12:43:09;99383.16;;;8.06;100.00
68793;BME280;55778;54.346;10.210;2023-03-25T12:46:59;99376.47;;;7.84;100.00
68793;BME280;55778;54.346;10.210;2023-03-25T12:49:36;99380.16;;;7.75;100.00
68793;BME280;55778;54.346;10.210;2023-03-25T12:52:22;99382.63;;;7.61;100.00
68793;BME280;55778;54.346;10.210;2023-03-25T13:06:22;99360.63;;;7.72;100.00
68793;BME280;55778;54.346;10.210;2023-03-25T13:09:10;99359.09;;;7.69;100.00
68793;BME280;55778;54.346;10.210;2023-03-25T13:11:49;99355.75;;;7.75;100.00
68793;BME280;55778;54.346;10.210;2023-03-25T13:14:24;99363.06;;;7.83;100.00
68793;BME280;55778;54.346;10.210;2023-03-25T13:16:54;99358.13;;;7.78;100.00
68793;BME280;55778;54.346;10.210;2023-03-25T13:19:24;99362.47;;;8.05;100.00
68793;BME280;55778;54.346;10.210;2023-03-25T13:21:55;99366.91;;;8.72;100.00
68793;BME280;55778;54.346;10.210;2023-03-25T13:24:55;99353.19;;;8.89;100.00
68793;BME280;55778;54.346;10.210;2023-03-25T13:27:23;99345.16;;;9.28;100.00
68793;BME280;55778;54.346;10.210;2023-03-25T13:29:55;99354.38;;;9.03;100.00
68793;BME280;55778;54.346;10.210;2023-03-25T13:34:55;99354.19;;;8.88;100.00
68793;BME280;55778;54.346;10.210;2023-03-25T13:37:28;99350.97;;;8.77;100.00
68793;BME280;55778;54.346;10.210;2023-03-25T13:43:06;99351.81;;;8.85;100.00
68793;BME280;55778;54.346;10.210;2023-03-25T13:48:40;99357.56;;;8.58;100.00
68793;BME280;55778;54.346;10.210;2023-03-25T13:51:07;99360.47;;;8.65;100.00
68793;BME280;55778;54.346;10.210;2023-03-25T13:53:47;99358.78;;;8.72;100.00
68793;BME280;55778;54.346;10.210;2023-03-25T13:56:32;99358.41;;;8.83;100.00
68793;BME280;55778;54.346;10.210;2023-03-25T14:06:47;99352.00;;;9.08;100.00
68793;BME280;55778;54.346;10.210;2023-03-25T14:14:26;99340.41;;;9.22;100.00
68793;BME280;55778;54.346;10.210;2023-03-25T14:16:55;99344.47;;;9.26;100.00
68793;BME280;55778;54.346;10.210;2023-03-25T14:19:31;99342.09;;;9.39;100.00
68793;BME280;55778;54.346;10.210;2023-03-25T14:21:58;99350.78;;;9.34;100.00
68793;BME280;55778;54.346;10.210;2023-03-25T14:24:30;99341.56;;;9.51;100.00
68793;BME280;55778;54.346;10.210;2023-03-25T14:27:26;99340.59;;;9.28;100.00
68793;BME280;55778;54.346;10.210;2023-03-25T14:30:00;99335.97;;;9.29;100.00
68793;BME280;55778;54.346;10.210;2023-03-25T14:32:36;99334.28;;;9.20;100.00
68793;BME280;55778;54.346;10.210;2023-03-25T14:38:16;99338.56;;;8.90;100.00
68793;BME280;55778;54.346;10.210;2023-03-25T14:43:35;99333.31;;;8.81;100.00
68793;BME280;55778;54.346;10.210;2023-03-25T14:48:41;99325.84;;;8.75;100.00
68793;BME280;55778;54.346;10.210;2023-03-25T14:53:53;99316.50;;;8.85;100.00
68793;BME280;55778;54.346;10.210;2023-03-25T14:56:40;99326.38;;;8.94;100.00
68793;BME280;55778;54.346;10.210;2023-03-25T14:59:17;99320.03;;;9.10;100.00
68793;BME280;55778;54.346;10.210;2023-03-25T15:01:46;99315.09;;;9.29;100.00
68793;BME280;55778;54.346;10.210;2023-03-25T15:04:21;99317.78;;;9.45;100.00